TimeEST,TemperatureF,Dew PointF,Humidity,Sea Level PressureIn,VisibilityMPH,Wind Direction,Wind SpeedMPH,Gust SpeedMPH,PrecipitationIn,Events,Conditions,WindDirDegrees,DateUTC
12:53 AM,39.9,36.0,86,30.19,5.0,South,5.8,-,N/A,,Clear,190,2012-11-22 05:53:00
1:53 AM,39.0,35.1,86,30.18,5.0,SSW,5.8,-,N/A,,Clear,200,2012-11-22 06:53:00
2:53 AM,37.9,35.1,89,30.18,5.0,South,5.8,-,N/A,,Clear,180,2012-11-22 07:53:00
3:53 AM,37.9,35.1,89,30.17,5.0,South,6.9,-,N/A,,Clear,180,2012-11-22 08:53:00
4:53 AM,37.9,35.1,89,30.17,5.0,South,6.9,-,N/A,,Clear,170,2012-11-22 09:53:00
5:53 AM,37.9,35.1,89,30.17,4.0,South,6.9,-,N/A,,Clear,170,2012-11-22 10:53:00
6:53 AM,37.0,34.0,89,30.17,4.0,South,8.1,-,N/A,,Clear,180,2012-11-22 11:53:00
7:53 AM,36.0,34.0,93,30.17,3.0,South,6.9,-,N/A,,Clear,190,2012-11-22 12:53:00
8:53 AM,45.0,39.9,82,30.17,5.0,South,8.1,-,N/A,,Haze,180,2012-11-22 13:53:00
9:53 AM,50.0,42.1,74,30.17,7.0,SSW,11.5,-,N/A,,Clear,200,2012-11-22 14:53:00
10:53 AM,55.0,43.0,64,30.14,8.0,South,12.7,-,N/A,,Clear,190,2012-11-22 15:53:00
11:53 AM,59.0,41.0,51,30.11,10.0,SSW,17.3,-,N/A,,Clear,210,2012-11-22 16:53:00
12:53 PM,60.1,42.1,51,30.08,10.0,SSW,20.7,-,N/A,,Clear,210,2012-11-22 17:53:00
1:53 PM,62.1,43.0,50,30.06,10.0,SSW,17.3,-,N/A,,Clear,210,2012-11-22 18:53:00
2:53 PM,60.1,42.1,51,30.04,10.0,SSW,17.3,-,N/A,,Clear,200,2012-11-22 19:53:00
3:53 PM,59.0,42.1,53,30.02,10.0,SSW,13.8,-,N/A,,Clear,200,2012-11-22 20:53:00
4:53 PM,55.9,42.1,60,30.01,10.0,South,10.4,-,N/A,,Clear,190,2012-11-22 21:53:00
5:53 PM,53.1,41.0,64,30.01,10.0,South,10.4,-,N/A,,Clear,190,2012-11-22 22:53:00
6:53 PM,50.0,41.0,71,29.99,10.0,South,10.4,-,N/A,,Clear,170,2012-11-22 23:53:00
7:53 PM,51.1,41.0,68,29.98,10.0,South,10.4,-,N/A,,Clear,180,2012-11-23 00:53:00
8:53 PM,54.0,41.0,62,29.96,10.0,South,12.7,-,N/A,,Mostly Cloudy,180,2012-11-23 01:53:00
9:53 PM,53.1,41.0,64,29.94,10.0,South,13.8,-,N/A,,Mostly Cloudy,190,2012-11-23 02:53:00
10:53 PM,52.0,41.0,66,29.91,10.0,SSW,16.1,-,N/A,,Clear,200,2012-11-23 03:53:00
11:53 PM,53.1,41.0,64,29.89,10.0,SSW,16.1,-,N/A,,Scattered Clouds,210,2012-11-23 04:53:00